createdAt,value
2023-04-10T00:03:53.214Z,6.04
2023-04-10T00:08:59.917Z,5.94
2023-04-10T00:14:06.660Z,5.92
2023-04-10T00:19:15.081Z,5.92
2023-04-10T00:24:21.677Z,5.72
2023-04-10T00:29:28.376Z,5.52
2023-04-10T00:34:36.540Z,5.56
2023-04-10T00:39:42.916Z,5.53
2023-04-10T00:44:49.274Z,5.51
2023-04-10T00:49:57.249Z,5.35
2023-04-10T00:55:04.166Z,5.25
2023-04-10T01:00:12.519Z,5.24
2023-04-10T01:05:20.399Z,5.19
2023-04-10T01:10:35.048Z,5.12
2023-04-10T01:15:49.656Z,5.10
2023-04-10T01:20:59.358Z,5.12
2023-04-10T01:26:08.213Z,4.96
2023-04-10T01:31:22.793Z,4.98
2023-04-10T01:36:35.780Z,4.92
2023-04-10T01:41:46.415Z,4.86
2023-04-10T01:46:57.145Z,4.85
2023-04-10T01:52:05.020Z,4.61
2023-04-10T01:57:14.453Z,4.61
2023-04-10T02:02:34.347Z,4.51
2023-04-10T02:07:48.402Z,4.68
2023-04-10T02:13:01.696Z,4.80
2023-04-10T02:18:13.056Z,4.84
2023-04-10T02:23:20.838Z,4.86
2023-04-10T02:28:27.630Z,4.70
2023-04-10T02:33:35.635Z,4.75
2023-04-10T02:38:42.028Z,4.75
2023-04-10T02:43:50.340Z,4.55
2023-04-10T02:49:06.708Z,4.59
2023-04-10T02:54:13.244Z,4.59
2023-04-10T02:59:22.259Z,4.44
2023-04-10T03:04:30.461Z,4.36
2023-04-10T03:09:37.326Z,4.11
2023-04-10T03:14:43.900Z,4.13
2023-04-10T03:19:51.538Z,4.03
2023-04-10T03:24:59.220Z,3.96
2023-04-10T03:30:06.338Z,3.77
2023-04-10T03:35:20.859Z,3.79
2023-04-10T03:40:27.164Z,3.75
2023-04-10T03:45:34.933Z,3.81
2023-04-10T03:50:43.793Z,3.96
2023-04-10T03:55:50.552Z,3.88
2023-04-10T04:00:57.474Z,3.88
2023-04-10T04:06:14.123Z,3.81
2023-04-10T04:11:30.058Z,3.67
2023-04-10T04:16:40.304Z,3.56
2023-04-10T04:22:08.359Z,3.66
2023-04-10T04:27:35.049Z,3.54
2023-04-10T04:33:01.069Z,3.74
2023-04-10T04:38:27.168Z,3.72
2023-04-10T04:43:45.270Z,3.71
2023-04-10T04:49:01.160Z,3.81
2023-04-10T04:54:17.620Z,3.88
2023-04-10T04:59:46.012Z,4.01
2023-04-10T05:05:16.210Z,4.23
2023-04-10T05:10:34.361Z,4.40
2023-04-10T05:15:54.937Z,4.62
2023-04-10T05:21:31.634Z,4.77
2023-04-10T05:26:58.190Z,4.98
2023-04-10T05:48:29.118Z,6.14
2023-04-10T05:54:00.123Z,6.33
2023-04-10T05:59:20.707Z,6.81
2023-04-10T06:05:07.994Z,7.22
2023-04-10T06:10:19.316Z,7.30
2023-04-10T06:15:27.329Z,7.57
2023-04-10T06:20:35.499Z,7.53
2023-04-10T06:25:43.625Z,7.55
2023-04-10T06:30:50.354Z,7.59
2023-04-10T06:35:58.440Z,7.70
2023-04-10T06:41:07.196Z,8.05
2023-04-10T06:46:16.722Z,8.18
2023-04-10T06:51:34.932Z,8.43
2023-04-10T06:56:43.533Z,8.72
2023-04-10T07:01:51.535Z,8.88
2023-04-10T07:07:04.634Z,8.87
2023-04-10T07:12:13.835Z,8.95
2023-04-10T07:17:22.615Z,9.05
2023-04-10T07:22:33.669Z,9.05
2023-04-10T07:27:42.165Z,9.16
2023-04-10T07:32:51.751Z,9.08
2023-04-10T07:38:01.515Z,9.08
2023-04-10T07:43:10.164Z,9.10
2023-04-10T07:48:17.806Z,9.24
2023-04-10T07:53:35.352Z,9.43
2023-04-10T07:58:48.139Z,9.62
2023-04-10T08:03:57.352Z,9.68
2023-04-10T08:09:08.260Z,9.96
2023-04-10T08:14:18.237Z,10.07
2023-04-10T08:19:25.702Z,10.10
2023-04-10T08:24:34.834Z,10.22
2023-04-10T08:29:42.555Z,10.49
2023-04-10T08:34:52.792Z,10.65
2023-04-10T08:40:02.361Z,10.74
2023-04-10T08:45:16.935Z,10.84
2023-04-10T08:50:31.778Z,11.13
2023-04-10T08:55:46.284Z,11.23
2023-04-10T09:01:00.778Z,11.29
2023-04-10T09:06:12.502Z,11.45
2023-04-10T09:11:25.614Z,11.36
2023-04-10T09:16:37.469Z,11.48
2023-04-10T09:21:56.282Z,11.61
2023-04-10T09:27:10.866Z,11.69
2023-04-10T09:32:43.572Z,12.04
2023-04-10T09:37:56.686Z,12.17
2023-04-10T09:43:30.762Z,12.17
2023-04-10T09:49:02.796Z,12.27
2023-04-10T09:54:20.949Z,12.34
2023-04-10T09:59:40.219Z,12.50
2023-04-10T10:04:55.092Z,12.86
2023-04-10T10:10:06.243Z,12.90
2023-04-10T10:15:26.763Z,13.16
2023-04-10T10:20:41.518Z,13.27
2023-04-10T10:25:54.767Z,13.37
2023-04-10T10:31:11.657Z,13.35
2023-04-10T10:36:24.711Z,13.35
2023-04-10T10:41:43.590Z,13.51
2023-04-10T10:47:03.461Z,13.62
2023-04-10T10:52:12.420Z,14.02
2023-04-10T10:57:51.439Z,14.02
2023-04-10T11:03:35.280Z,13.92
2023-04-10T11:08:50.129Z,14.09
2023-04-10T11:14:22.031Z,14.13
2023-04-10T11:19:33.504Z,14.08
2023-04-10T11:25:01.431Z,14.40
2023-04-10T11:30:33.235Z,14.42
2023-04-10T11:35:48.881Z,14.55
2023-04-10T11:41:07.009Z,14.60
2023-04-10T11:46:15.894Z,14.91
2023-04-10T11:51:25.909Z,14.91
2023-04-10T11:56:34.061Z,14.78
2023-04-10T12:01:44.067Z,15.02
2023-04-10T12:06:59.497Z,15.00
2023-04-10T12:12:12.409Z,15.17
2023-04-10T12:17:21.816Z,15.06
2023-04-10T12:22:38.169Z,14.92
2023-04-10T12:27:53.304Z,14.96
2023-04-10T12:33:04.472Z,15.10
2023-04-10T12:38:14.263Z,15.36
2023-04-10T12:43:36.308Z,15.41
2023-04-10T12:48:45.636Z,15.42
2023-04-10T12:53:58.324Z,15.33
2023-04-10T12:59:10.017Z,15.19
2023-04-10T13:04:17.504Z,15.29
2023-04-10T13:09:29.077Z,15.50
2023-04-10T13:14:41.227Z,15.33
2023-04-10T13:19:49.596Z,15.05
2023-04-10T13:24:59.984Z,15.02
2023-04-10T13:30:10.140Z,15.18
2023-04-10T13:35:22.121Z,15.24
2023-04-10T13:40:37.554Z,15.24
2023-04-10T13:45:46.231Z,15.40
2023-04-10T13:51:03.730Z,15.46
2023-04-10T13:56:13.779Z,15.51
2023-04-10T14:01:24.426Z,15.64
2023-04-10T14:06:42.888Z,15.89
2023-04-10T14:11:53.885Z,15.70
2023-04-10T14:17:05.132Z,15.60
2023-04-10T14:22:15.283Z,15.53
2023-04-10T14:27:25.475Z,15.42
2023-04-10T14:32:39.138Z,15.45
2023-04-10T14:37:48.709Z,15.57
2023-04-10T14:42:59.783Z,15.54
2023-04-10T14:48:12.275Z,15.45
2023-04-10T14:53:25.301Z,15.41
2023-04-10T14:58:36.521Z,15.21
2023-04-10T15:03:44.992Z,15.07
2023-04-10T15:08:57.930Z,15.19
2023-04-10T15:14:15.875Z,15.27
2023-04-10T15:19:28.950Z,15.25
2023-04-10T15:24:50.077Z,15.24
2023-04-10T15:30:03.469Z,15.26
2023-04-10T15:35:16.848Z,15.28
2023-04-10T15:40:25.416Z,15.41
2023-04-10T15:45:38.768Z,15.39
2023-04-10T15:50:48.425Z,15.41
2023-04-10T15:55:59.418Z,15.46
2023-04-10T16:01:11.751Z,15.46
2023-04-10T16:06:22.220Z,15.42
2023-04-10T16:11:32.769Z,15.39
2023-04-10T16:16:45.814Z,15.26
2023-04-10T16:21:55.682Z,15.25
2023-04-10T16:27:10.993Z,15.22
2023-04-10T16:32:23.274Z,15.11
2023-04-10T16:37:36.998Z,14.98
2023-04-10T16:42:51.445Z,14.91
2023-04-10T16:48:06.058Z,14.90
2023-04-10T16:53:20.635Z,14.88
2023-04-10T16:58:41.766Z,14.84
2023-04-10T17:03:59.830Z,14.76
2023-04-10T17:09:10.838Z,14.69
2023-04-10T17:14:24.538Z,14.61
2023-04-10T17:19:45.000Z,14.47
2023-04-10T17:25:02.366Z,14.34
2023-04-10T17:30:22.522Z,14.16
2023-04-10T17:35:46.395Z,14.03
2023-04-10T17:41:01.724Z,13.83
2023-04-10T17:46:31.470Z,13.72
2023-04-10T17:51:55.821Z,13.69
2023-04-10T17:57:21.312Z,13.43
2023-04-10T18:02:43.508Z,13.13
2023-04-10T18:08:07.569Z,12.77
2023-04-10T18:13:24.082Z,12.68
2023-04-10T18:18:36.496Z,12.65
2023-04-10T18:23:53.181Z,12.53
2023-04-10T18:29:13.921Z,12.54
2023-04-10T18:34:38.750Z,12.37
2023-04-10T18:40:15.980Z,12.10
2023-04-10T18:45:44.194Z,11.87
2023-04-10T18:51:23.886Z,11.83
2023-04-10T18:56:42.553Z,11.69
2023-04-10T19:02:04.865Z,11.48
2023-04-10T19:07:23.256Z,11.30
2023-04-10T19:12:45.597Z,11.18
2023-04-10T19:18:04.035Z,11.13
2023-04-10T19:23:27.707Z,10.87
2023-04-10T19:28:46.320Z,10.71
2023-04-10T19:34:05.729Z,10.52
2023-04-10T19:39:35.290Z,10.50
2023-04-10T19:44:55.816Z,10.26
2023-04-10T19:50:17.135Z,10.15
2023-04-10T19:55:35.995Z,10.00
2023-04-10T20:00:54.370Z,9.91
2023-04-10T20:06:14.583Z,9.73
2023-04-10T20:11:32.888Z,9.66
2023-04-10T20:16:49.912Z,9.48
2023-04-10T20:22:05.901Z,9.27
2023-04-10T20:27:20.191Z,9.19
2023-04-10T20:32:41.052Z,9.04
2023-04-10T20:37:54.810Z,9.00
2023-04-10T20:43:11.982Z,8.81
2023-04-10T20:48:22.604Z,8.60
2023-04-10T20:53:32.020Z,8.60
2023-04-10T20:58:42.081Z,8.45
2023-04-10T21:03:53.811Z,8.50
2023-04-10T21:09:06.520Z,8.48
2023-04-10T21:14:18.722Z,8.37
2023-04-10T21:19:29.025Z,8.33
2023-04-10T21:24:36.574Z,8.22
2023-04-10T21:29:43.570Z,8.06
2023-04-10T21:34:52.669Z,7.96
2023-04-10T21:40:01.664Z,7.88
2023-04-10T21:45:12.484Z,7.85
2023-04-10T21:50:25.355Z,7.65
2023-04-10T21:55:33.198Z,7.53
2023-04-10T22:00:41.980Z,7.27
2023-04-10T22:05:51.468Z,7.17
2023-04-10T22:10:58.491Z,7.19
2023-04-10T22:16:07.733Z,6.80
2023-04-10T22:21:15.801Z,6.83
2023-04-10T22:26:25.121Z,6.86
2023-04-10T22:31:31.869Z,6.83
2023-04-10T22:36:40.158Z,6.83
2023-04-10T22:41:47.004Z,6.82
2023-04-10T22:46:53.626Z,6.50
2023-04-10T22:52:01.499Z,6.44
2023-04-10T22:57:08.088Z,6.48
2023-04-10T23:02:14.812Z,6.31
2023-04-10T23:07:22.876Z,6.40
2023-04-10T23:12:29.326Z,6.39
2023-04-10T23:17:35.756Z,6.23
2023-04-10T23:22:43.448Z,6.13
2023-04-10T23:27:49.880Z,5.87
2023-04-10T23:32:56.365Z,5.80
2023-04-10T23:38:04.373Z,5.96
2023-04-10T23:43:10.742Z,5.67
2023-04-10T23:48:17.044Z,5.45
2023-04-10T23:53:24.795Z,5.68
2023-04-10T23:58:31.135Z,5.65
